Time;durP1;ratioP1;P1;durP2;ratioP2;P2;SDS_P1;SDS_P2;PMS_P1;PMS_P2;Temp;Humidity;BMP_temperature;BMP_pressure;BME280_temperature;BME280_humidity;BME280_pressure;Samples;Min_cycle;Max_cycle;Signal;HPM_P1;HPM_P2
2022/08/18 00:00:21;;;;;;;7.27;6.07;;;19.10;99.90;19.90;96468.00;;;;5061684;28;20893;-68
2022/08/18 00:03:11;;;;;;;7.50;5.37;;;19.00;99.90;20.10;96454.00;;;;5055755;28;20200;-68
2022/08/18 00:06:00;;;;;;;8.43;4.77;;;19.00;99.90;19.90;96449.00;;;;5051603;28;20608;-68
2022/08/18 00:08:49;;;;;;;5.83;5.30;;;19.00;99.90;19.50;96449.00;;;;5051142;28;20200;-68
2022/08/18 00:11:42;;;;;;;8.47;5.93;;;18.80;99.90;19.40;96445.00;;;;5062509;28;20223;-68
2022/08/18 00:14:31;;;;;;;5.83;5.23;;;18.70;99.90;19.90;96462.00;;;;5059669;28;20196;-68
2022/08/18 00:17:20;;;;;;;8.30;6.23;;;18.70;99.90;20.00;96451.00;;;;5058522;28;20204;-67
2022/08/18 00:20:15;;;;;;;6.93;5.43;;;18.80;99.90;19.80;96453.00;;;;5062647;28;20234;-69
2022/08/18 00:23:04;;;;;;;7.50;5.70;;;18.80;99.90;19.10;96451.00;;;;5061129;28;20203;-68
2022/08/18 00:25:56;;;;;;;6.87;5.53;;;18.60;99.90;19.20;96459.00;;;;5059198;28;20228;-68
2022/08/18 00:28:46;;;;;;;6.17;5.57;;;18.50;99.90;19.50;96456.00;;;;5061891;28;20203;-69
2022/08/18 00:31:35;;;;;;;8.80;5.70;;;18.50;99.90;19.90;96461.00;;;;5046039;28;20208;-68
2022/08/18 00:34:24;;;;;;;7.63;5.10;;;18.50;99.90;20.10;96465.00;;;;5063743;28;20923;-68
2022/08/18 00:37:13;;;;;;;9.87;5.40;;;18.60;99.90;20.30;96450.00;;;;5062630;28;20204;-68
2022/08/18 00:40:03;;;;;;;6.13;5.53;;;18.70;99.90;20.20;96455.00;;;;5060171;28;20754;-68
2022/08/18 00:42:56;;;;;;;6.23;5.60;;;18.80;99.90;20.30;96447.00;;;;5057579;28;20204;-67
2022/08/18 00:45:47;;;;;;;6.20;5.50;;;18.90;99.90;20.20;96455.00;;;;5055566;28;20216;-68
2022/08/18 00:48:37;;;;;;;6.67;5.30;;;19.00;99.90;20.30;96453.00;;;;5059051;28;20197;-68
2022/08/18 00:51:35;;;;;;;7.20;5.10;;;19.00;99.90;20.30;96461.00;;;;5048470;28;20237;-68
2022/08/18 00:54:28;;;;;;;8.17;5.17;;;19.00;99.90;20.40;96451.00;;;;5066553;28;20214;-68
2022/08/18 00:57:20;;;;;;;6.50;5.90;;;19.00;99.90;20.10;96439.00;;;;5072832;22;20593;-84
2022/08/18 01:00:12;;;;;;;7.47;5.40;;;19.00;99.90;20.10;96435.00;;;;5062431;28;20524;-86
2022/08/18 01:03:11;;;;;;;6.67;5.40;;;19.00;99.90;20.10;96418.00;;;;5059934;28;20200;-87
2022/08/18 01:06:05;;;;;;;5.47;4.73;;;19.00;99.90;20.20;96411.00;;;;5057010;28;20203;-86
2022/08/18 01:08:55;;;;;;;7.30;5.80;;;19.00;99.90;20.00;96422.00;;;;5073494;22;20234;-71
2022/08/18 01:11:44;;;;;;;8.77;5.10;;;19.00;99.90;19.70;96423.00;;;;5069114;28;20199;-72
2022/08/18 01:14:33;;;;;;;6.00;5.50;;;18.90;99.90;20.00;96418.00;;;;5027169;28;20906;-71
2022/08/18 01:23:48;;;;;;;6.63;4.80;;;18.80;99.90;20.20;96410.00;;;;5016363;28;20190;-71
2022/08/18 01:26:48;;;;;;;6.13;5.53;;;18.90;99.90;19.60;96397.00;;;;5046292;28;20225;-71
2022/08/18 01:29:37;;;;;;;5.30;4.90;;;18.80;99.90;19.50;96394.00;;;;5059438;28;20657;-72
2022/08/18 01:32:29;;;;;;;8.80;5.33;;;18.70;99.90;19.50;96391.00;;;;5017196;28;20255;-71
2022/08/18 01:35:19;;;;;;;7.57;5.93;;;18.60;99.90;19.60;96397.00;;;;5009228;28;20209;-71
2022/08/18 01:38:08;;;;;;;7.50;5.20;;;18.60;99.90;19.80;96370.00;;;;5012967;28;20205;-71
2022/08/18 01:40:59;;;;;;;8.63;6.13;;;18.60;99.90;19.50;96391.00;;;;5016338;28;20225;-72
2022/08/18 01:43:49;;;;;;;7.40;5.00;;;18.60;99.90;19.60;96381.00;;;;5019113;28;20198;-71
2022/08/18 01:46:41;;;;;;;6.53;5.13;;;18.60;99.90;19.50;96377.00;;;;5021680;28;20712;-72
2022/08/18 01:49:29;;;;;;;7.03;6.10;;;18.50;99.90;19.50;96377.00;;;;5046862;28;20194;-72
2022/08/18 01:52:20;;;;;;;6.00;5.40;;;18.50;99.90;19.70;96381.00;;;;5017814;28;20198;-71
2022/08/18 01:55:10;;;;;;;6.13;5.63;;;18.50;99.90;19.60;96376.00;;;;5014099;28;20993;-71
2022/08/18 01:58:01;;;;;;;6.10;5.07;;;18.50;99.90;19.50;96390.00;;;;5012693;28;20217;-71
2022/08/18 02:00:49;;;;;;;6.53;5.90;;;18.50;99.90;19.50;96388.00;;;;5013286;28;20225;-71
2022/08/18 02:03:43;;;;;;;7.33;5.53;;;18.50;99.90;19.80;96382.00;;;;5033304;28;20597;-71
2022/08/18 02:06:34;;;;;;;7.47;6.87;;;18.40;99.90;19.80;96360.00;;;;5056644;28;20226;-72
2022/08/18 02:09:22;;;;;;;6.30;5.30;;;18.50;99.90;19.80;96357.00;;;;5021772;28;20466;-71
2022/08/18 02:12:13;;;;;;;6.23;5.63;;;18.50;99.90;19.50;96367.00;;;;5065268;28;20661;-71
2022/08/18 02:15:03;;;;;;;7.73;5.67;;;18.50;99.90;19.20;96357.00;;;;5022200;28;20202;-71
2022/08/18 02:17:52;;;;;;;7.27;5.60;;;18.40;99.90;18.60;96373.00;;;;5021782;28;20217;-71
2022/08/18 02:20:42;;;;;;;6.37;5.63;;;18.20;99.90;18.40;96365.00;;;;5016728;28;20226;-73
2022/08/18 02:23:32;;;;;;;8.30;5.93;;;18.00;99.90;18.00;96367.00;;;;5015136;28;20206;-71
2022/08/18 02:26:23;;;;;;;6.67;5.70;;;17.70;99.90;18.30;96359.00;;;;5008227;28;20229;-72
2022/08/18 02:29:12;;;;;;;7.10;5.27;;;17.60;99.90;18.30;96364.00;;;;5013884;28;20703;-71
2022/08/18 02:32:04;;;;;;;6.97;5.87;;;17.60;99.90;18.50;96362.00;;;;5018949;28;20202;-71
2022/08/18 02:34:53;;;;;;;6.00;5.40;;;17.50;99.90;18.70;96364.00;;;;5022546;28;20198;-71
2022/08/18 02:37:46;;;;;;;7.83;5.53;;;17.50;99.90;19.00;96361.00;;;;5030311;28;20209;-72
2022/08/18 02:40:37;;;;;;;8.80;6.60;;;17.60;99.90;18.90;96363.00;;;;5020681;28;20218;-71
2022/08/18 02:43:27;;;;;;;6.90;6.20;;;17.70;99.90;18.90;96381.00;;;;5045558;28;20797;-71
2022/08/18 02:46:16;;;;;;;8.13;6.57;;;17.70;99.90;19.10;96364.00;;;;5023853;28;20218;-71
2022/08/18 02:49:07;;;;;;;6.67;6.07;;;17.80;99.90;19.20;96372.00;;;;5042935;28;20198;-71
2022/08/18 02:51:56;;;;;;;6.43;5.77;;;17.80;99.90;19.20;96371.00;;;;5024458;28;20590;-71
2022/08/18 02:54:46;;;;;;;6.30;5.70;;;17.90;99.90;19.00;96377.00;;;;5005990;28;20202;-71
2022/08/18 02:57:34;;;;;;;7.17;6.33;;;17.90;99.90;18.60;96375.00;;;;5021736;28;20225;-71
2022/08/18 03:00:23;;;;;;;6.20;5.47;;;17.80;99.90;18.30;96368.00;;;;5024653;28;20230;-71
2022/08/18 03:03:12;;;;;;;11.70;6.17;;;17.70;99.90;18.00;96367.00;;;;5048545;28;20214;-71
2022/08/18 03:06:03;;;;;;;8.77;7.13;;;17.50;99.90;18.20;96361.00;;;;5042723;28;20226;-71
2022/08/18 03:08:52;;;;;;;7.10;6.40;;;17.40;99.90;18.20;96360.00;;;;5017163;28;20252;-71
2022/08/18 03:11:42;;;;;;;6.53;5.77;;;17.40;99.90;18.10;96366.00;;;;5065438;28;20677;-72
2022/08/18 03:14:31;;;;;;;7.40;6.70;;;17.30;99.90;18.20;96366.00;;;;5005015;28;20198;-71
2022/08/18 03:17:19;;;;;;;7.27;6.03;;;17.30;99.90;17.70;96361.00;;;;5026142;28;20218;-71
2022/08/18 03:20:09;;;;;;;8.97;6.83;;;17.20;99.90;17.90;96371.00;;;;5017428;28;20377;-71
2022/08/18 03:23:00;;;;;;;7.73;6.90;;;17.10;99.90;18.10;96369.00;;;;5019343;28;20885;-71
2022/08/18 03:25:50;;;;;;;6.87;6.17;;;17.10;99.90;18.50;96373.00;;;;5019812;28;20230;-71
2022/08/18 03:28:41;;;;;;;6.77;6.00;;;17.20;99.90;18.80;96375.00;;;;5020376;28;20218;-72
2022/08/18 03:31:31;;;;;;;6.67;5.90;;;17.30;99.90;18.50;96374.00;;;;5064780;28;20210;-71
2022/08/18 03:34:21;;;;;;;9.53;6.60;;;17.30;99.90;18.60;96384.00;;;;5052585;28;20198;-71
2022/08/18 03:37:10;;;;;;;7.03;6.07;;;17.40;99.90;18.70;96389.00;;;;5009062;28;20221;-72
2022/08/18 03:40:00;;;;;;;7.30;6.50;;;17.40;99.90;18.40;96384.00;;;;5007503;28;20637;-71
2022/08/18 03:42:49;;;;;;;8.43;6.37;;;17.40;99.90;18.20;96382.00;;;;5012049;28;20284;-72
2022/08/18 03:45:40;;;;;;;9.57;7.27;;;17.40;99.90;18.50;96383.00;;;;5034326;28;20222;-71
2022/08/18 03:48:29;;;;;;;7.53;6.27;;;17.40;99.90;18.30;96369.00;;;;5022756;28;20206;-71
2022/08/18 03:51:20;;;;;;;8.60;6.70;;;17.30;99.90;18.20;96382.00;;;;5032528;28;20195;-71
2022/08/18 03:54:12;;;;;;;7.03;6.10;;;17.30;99.90;18.30;96387.00;;;;5023006;28;20202;-71
2022/08/18 03:57:02;;;;;;;8.13;6.30;;;17.30;99.90;17.90;96386.00;;;;5018576;28;20218;-71
2022/08/18 03:59:51;;;;;;;7.53;6.80;;;17.20;99.90;17.60;96401.00;;;;5021644;28;20198;-71
2022/08/18 04:02:40;;;;;;;7.73;7.07;;;17.10;99.90;17.40;96382.00;;;;5016240;28;20217;-70
2022/08/18 04:05:29;;;;;;;7.50;6.67;;;16.90;99.90;17.40;96387.00;;;;5023061;28;20288;-71
2022/08/18 04:08:18;;;;;;;7.60;6.77;;;16.80;99.90;17.70;96378.00;;;;5018195;28;20221;-71
2022/08/18 04:11:07;;;;;;;9.05;6.50;;;16.80;99.90;17.70;96384.00;;;;5006367;28;20228;-71
2022/08/18 04:13:57;;;;;;;7.80;7.10;;;16.80;99.90;18.20;96389.00;;;;5005754;28;20202;-72
2022/08/18 04:16:47;;;;;;;7.13;6.43;;;16.80;99.90;18.40;96389.00;;;;5008669;28;20238;-71
2022/08/18 04:19:37;;;;;;;8.30;6.50;;;17.00;99.90;18.30;96393.00;;;;5010421;28;20197;-72
2022/08/18 04:22:26;;;;;;;11.57;7.20;;;17.00;99.90;18.20;96394.00;;;;4994550;28;20237;-71
2022/08/18 04:25:15;;;;;;;7.83;6.80;;;17.10;99.90;18.50;96396.00;;;;5008651;28;20214;-71
2022/08/18 04:28:04;;;;;;;8.70;6.13;;;17.20;99.90;18.60;96390.00;;;;5006042;28;20213;-71
2022/08/18 04:30:55;;;;;;;7.80;6.80;;;17.30;99.90;18.10;96394.00;;;;5005626;28;20206;-71
2022/08/18 04:33:44;;;;;;;6.80;6.20;;;17.30;99.90;18.00;96387.00;;;;5005763;28;20595;-71
2022/08/18 04:36:36;;;;;;;7.33;6.63;;;17.20;99.90;17.90;96392.00;;;;5003883;28;20229;-72
2022/08/18 04:39:25;;;;;;;13.37;6.70;;;17.10;99.90;17.70;96393.00;;;;5006067;28;20210;-71
2022/08/18 04:42:15;;;;;;;11.00;7.67;;;17.00;99.90;17.40;96397.00;;;;5043668;28;20310;-71
2022/08/18 04:45:06;;;;;;;8.00;7.20;;;16.90;99.90;17.50;96397.00;;;;5005540;28;20202;-71
2022/08/18 04:47:56;;;;;;;6.90;6.17;;;16.80;99.90;17.30;96403.00;;;;5005586;28;20676;-70
2022/08/18 04:50:45;;;;;;;8.40;7.00;;;16.70;99.90;17.40;96400.00;;;;5005535;28;20213;-71
2022/08/18 04:53:46;;;;;;;8.97;8.07;;;16.70;99.90;17.60;96404.00;;;;5007530;28;20214;-72
2022/08/18 04:56:39;;;;;;;13.30;7.60;;;16.70;99.90;17.70;96402.00;;;;5023562;28;20233;-71
2022/08/18 04:59:28;;;;;;;7.30;6.60;;;16.70;99.90;17.90;96395.00;;;;5011497;28;20206;-71
2022/08/18 05:02:18;;;;;;;7.57;6.87;;;16.70;99.90;18.20;96394.00;;;;5003765;28;20218;-71
2022/08/18 05:05:09;;;;;;;9.70;6.80;;;16.90;99.90;18.40;96397.00;;;;5005778;28;20202;-71
2022/08/18 05:07:58;;;;;;;8.17;7.33;;;17.00;99.90;18.50;96391.00;;;;5004228;28;20704;-72
2022/08/18 05:10:47;;;;;;;8.73;7.20;;;17.10;99.90;18.70;96389.00;;;;5005109;28;20210;-71
2022/08/18 05:13:37;;;;;;;9.57;7.03;;;17.20;99.90;18.90;96388.00;;;;5005189;28;20212;-71
2022/08/18 05:16:27;;;;;;;8.23;6.20;;;17.40;99.90;19.10;96386.00;;;;5005313;28;20232;-71
2022/08/18 05:19:22;;;;;;;7.97;6.50;;;17.50;99.90;18.90;96389.00;;;;5009486;28;20202;-72
2022/08/18 05:22:16;;;;;;;7.60;6.43;;;17.60;99.90;18.70;96385.00;;;;5004590;28;20218;-72
2022/08/18 05:25:07;;;;;;;8.90;7.17;;;17.70;99.90;18.80;96371.00;;;;5005382;28;20205;-71
2022/08/18 05:27:56;;;;;;;12.20;7.10;;;17.70;99.90;18.90;96371.00;;;;5004569;28;20212;-71
2022/08/18 05:30:45;;;;;;;8.07;6.77;;;17.70;99.90;19.20;96359.00;;;;4988545;28;20214;-71
2022/08/18 05:33:34;;;;;;;7.50;6.73;;;17.80;99.90;19.30;96362.00;;;;5009000;28;20206;-71
2022/08/18 05:36:45;;;;;;;10.50;6.63;;;17.90;99.90;19.30;96357.00;;;;5000521;28;20225;-71
2022/08/18 05:39:48;;;;;;;10.40;7.83;;;18.10;99.90;19.30;96367.00;;;;5001524;28;20210;-71
2022/08/18 05:42:40;;;;;;;9.63;7.10;;;18.20;99.90;19.40;96364.00;;;;5007474;28;20229;-72
2022/08/18 05:45:29;;;;;;;8.50;6.83;;;18.30;99.90;19.40;96380.00;;;;5005640;28;20207;-72
2022/08/18 05:48:18;;;;;;;7.93;6.53;;;18.30;99.90;19.50;96375.00;;;;5006074;28;20202;-72
2022/08/18 05:51:16;;;;;;;7.93;7.20;;;18.40;99.90;19.60;96383.00;;;;5021214;28;20206;-72
2022/08/18 05:57:20;;;;;;;8.93;7.87;;;18.60;99.90;20.00;96389.00;;;;5041139;28;20229;-71
2022/08/18 06:00:10;;;;;;;7.60;6.03;;;18.70;99.90;20.40;96392.00;;;;5012508;28;20194;-71
2022/08/18 06:03:08;;;;;;;12.57;7.60;;;18.90;99.90;20.60;96388.00;;;;5017139;28;20226;-71
2022/08/18 06:06:01;;;;;;;12.97;8.13;;;19.00;99.90;20.70;96397.00;;;;5008041;28;20283;-71
2022/08/18 06:08:59;;;;;;;11.63;7.63;;;19.20;99.90;20.90;96406.00;;;;5005040;28;20680;-71
2022/08/18 06:11:48;;;;;;;8.60;7.30;;;19.40;99.90;21.00;96422.00;;;;5002075;28;20206;-71
2022/08/18 06:14:40;;;;;;;10.63;7.37;;;19.50;99.90;21.00;96435.00;;;;5007628;28;20400;-72
2022/08/18 06:18:06;;;;;;;9.53;7.93;;;19.70;99.90;21.40;96430.00;;;;5007087;28;20232;-71
2022/08/18 06:21:31;;;;;;;10.33;8.33;;;19.90;99.90;21.70;96435.00;;;;5013269;28;20224;-71
2022/08/18 06:24:32;;;;;;;12.90;9.77;;;20.10;99.90;21.50;96438.00;;;;4999748;28;20977;-71
2022/08/18 06:27:32;;;;;;;11.30;8.30;;;19.50;99.90;21.60;96431.00;;;;5025123;28;20600;-71
2022/08/18 06:30:31;;;;;;;11.37;8.83;;;20.30;99.90;21.90;96438.00;;;;5012526;28;20202;-71
2022/08/18 06:33:49;;;;;;;9.13;7.90;;;20.40;99.90;22.40;96432.00;;;;5012576;28;20208;-71
2022/08/18 06:36:50;;;;;;;11.23;8.60;;;20.60;99.90;22.80;96427.00;;;;5015087;28;20223;-71
2022/08/18 06:39:47;;;;;;;11.20;7.83;;;20.80;99.90;23.00;96421.00;;;;5010695;28;20205;-71
2022/08/18 06:42:38;;;;;;;9.20;7.33;;;21.10;99.90;23.20;96423.00;;;;5020236;28;20487;-71
2022/08/18 06:45:35;;;;;;;11.33;8.27;;;21.30;99.90;23.50;96412.00;;;;5011948;28;20202;-72
2022/08/18 06:48:32;;;;;;;14.70;7.87;;;21.60;99.90;23.80;96420.00;;;;5008841;28;20316;-71
2022/08/18 06:51:23;;;;;;;9.60;7.37;;;21.90;99.90;23.60;96415.00;;;;5039491;28;20213;-72
2022/08/18 06:54:29;;;;;;;15.47;9.00;;;22.10;99.90;24.30;96414.00;;;;5005084;28;20198;-72
2022/08/18 06:57:30;;;;;;;10.07;7.50;;;22.40;99.90;24.70;96414.00;;;;4996357;28;20764;-72
2022/08/18 07:00:24;;;;;;;9.40;6.77;;;22.60;99.90;24.70;96414.00;;;;5045983;22;20243;-70
2022/08/18 07:03:19;;;;;;;19.27;8.03;;;22.80;99.90;24.80;96422.00;;;;5067994;28;20227;-70
2022/08/18 07:06:11;;;;;;;10.07;7.70;;;23.00;99.90;25.00;96427.00;;;;5068785;28;20208;-69
2022/08/18 07:09:21;;;;;;;10.37;7.43;;;23.20;99.90;24.80;96425.00;;;;5069677;28;20204;-69
2022/08/18 07:12:20;;;;;;;10.70;7.67;;;23.40;99.90;25.00;96435.00;;;;5050231;28;20203;-69
2022/08/18 07:15:13;;;;;;;10.93;7.67;;;23.50;99.90;25.30;96438.00;;;;5045083;28;20212;-70
2022/08/18 07:18:06;;;;;;;8.97;7.50;;;23.60;99.90;25.70;96447.00;;;;5048198;28;20201;-69
2022/08/18 07:20:59;;;;;;;8.30;7.30;;;23.80;99.90;26.10;96454.00;;;;5049741;28;20354;-70
2022/08/18 07:24:00;;;;;;;10.87;7.87;;;24.00;99.90;26.40;96441.00;;;;5045480;28;20311;-70
2022/08/18 07:27:12;;;;;;;8.27;6.67;;;24.20;99.90;26.60;96437.00;;;;5048396;28;20209;-70
2022/08/18 07:30:06;;;;;;;14.30;7.10;;;24.50;99.90;26.90;96443.00;;;;5050965;28;20605;-70
2022/08/18 07:33:08;;;;;;;9.07;5.83;;;24.70;99.90;27.20;96438.00;;;;5049319;28;20200;-70
2022/08/18 07:36:05;;;;;;;11.37;6.80;;;24.90;99.90;27.30;96429.00;;;;5047294;28;20210;-70
2022/08/18 07:39:00;;;;;;;9.13;6.97;;;25.20;99.90;27.30;96435.00;;;;5045637;28;20678;-70
2022/08/18 07:41:56;;;;;;;11.73;6.87;;;25.30;99.90;27.40;96433.00;;;;5044773;28;20225;-70
2022/08/18 07:44:56;;;;;;;13.10;7.23;;;25.50;99.90;27.30;96433.00;;;;5038970;28;20211;-70
2022/08/18 07:47:54;;;;;;;10.63;7.67;;;25.60;99.90;27.20;96418.00;;;;5050461;28;20210;-70
2022/08/18 07:50:56;;;;;;;9.23;6.97;;;25.70;99.90;27.70;96412.00;;;;5049606;28;20227;-70
2022/08/18 07:53:57;;;;;;;7.87;6.47;;;25.80;99.90;27.90;96400.00;;;;5038942;28;20665;-70
2022/08/18 07:56:54;;;;;;;9.33;6.50;;;25.90;99.90;28.00;96404.00;;;;5044135;28;20596;-70
2022/08/18 07:59:51;;;;;;;9.83;6.07;;;26.00;99.90;28.40;96391.00;;;;5042052;28;20226;-70
2022/08/18 08:03:03;;;;;;;10.30;6.00;;;26.30;99.90;28.70;96375.00;;;;5049048;28;20238;-70
2022/08/18 08:06:02;;;;;;;9.17;6.10;;;26.50;99.90;28.90;96348.00;;;;5050058;28;20200;-70
2022/08/18 08:09:05;;;;;;;7.13;5.53;;;26.70;99.90;29.30;96341.00;;;;5049721;28;20198;-70
2022/08/18 08:12:00;;;;;;;12.67;6.80;;;27.00;99.90;29.40;96350.00;;;;5049116;28;20237;-71
2022/08/18 08:14:57;;;;;;;7.27;6.13;;;27.20;99.90;29.60;96330.00;;;;5046060;28;20216;-71
2022/08/18 08:18:01;;;;;;;9.80;6.33;;;27.40;99.90;29.80;96327.00;;;;5049456;28;20709;-70
2022/08/18 08:20:56;;;;;;;8.30;5.43;;;27.60;99.90;29.70;96322.00;;;;5044907;28;20899;-70
2022/08/18 08:23:56;;;;;;;7.77;6.20;;;27.80;99.90;30.00;96337.00;;;;5047088;28;20226;-70
2022/08/18 08:26:55;;;;;;;10.47;5.90;;;27.90;99.90;30.30;96334.00;;;;5048500;28;20212;-70
2022/08/18 08:29:52;;;;;;;8.50;6.00;;;28.10;99.90;30.70;96343.00;;;;5051009;28;20590;-70
2022/08/18 08:33:00;;;;;;;6.50;5.77;;;28.30;99.80;31.00;96346.00;;;;5048319;28;20213;-71
2022/08/18 08:35:54;;;;;;;8.27;5.67;;;28.60;99.20;31.30;96348.00;;;;5040031;28;20197;-71
2022/08/18 08:38:48;;;;;;;8.00;5.30;;;28.90;98.40;31.60;96341.00;;;;5049133;28;20205;-70
2022/08/18 08:41:45;;;;;;;9.87;5.23;;;29.10;98.00;31.80;96344.00;;;;5046183;28;20678;-70
2022/08/18 08:44:40;;;;;;;8.63;5.53;;;29.40;97.30;31.90;96347.00;;;;5047531;28;20694;-70
2022/08/18 08:47:45;;;;;;;6.27;5.33;;;29.60;96.50;32.10;96352.00;;;;5049100;28;20214;-70
2022/08/18 08:50:40;;;;;;;6.07;5.25;;;29.80;95.70;32.30;96346.00;;;;5045157;28;20229;-71
2022/08/18 08:53:34;;;;;;;5.15;4.65;;;29.90;94.90;32.40;96334.00;;;;5047731;28;20215;-70
2022/08/18 08:56:30;;;;;;;9.98;5.28;;;30.10;94.00;32.50;96344.00;;;;5047926;28;20613;-70
2022/08/18 08:59:23;;;;;;;10.80;4.68;;;30.20;93.30;32.60;96333.00;;;;5046439;28;20194;-70
2022/08/18 09:02:58;;;;;;;8.20;5.03;;;30.40;92.40;32.80;96327.00;;;;5046658;28;20211;-70
2022/08/18 09:05:56;;;;;;;5.15;4.07;;;30.50;91.30;32.30;96337.00;;;;5042810;28;20206;-69
2022/08/18 09:09:17;;;;;;;4.32;3.90;;;30.60;86.90;32.80;96334.00;;;;5043292;28;20219;-70
2022/08/18 09:12:27;;;;;;;6.60;4.82;;;30.70;85.60;33.10;96328.00;;;;5047726;28;20207;-70
2022/08/18 09:15:41;;;;;;;6.38;5.18;;;30.80;83.70;32.70;96324.00;;;;5051263;28;20673;-70
2022/08/18 09:18:51;;;;;;;6.78;4.80;;;31.00;81.90;33.10;96334.00;;;;5047730;28;20222;-70
2022/08/18 09:21:46;;;;;;;5.60;3.97;;;31.00;80.20;33.30;96329.00;;;;5033658;28;20222;-70
2022/08/18 09:24:46;;;;;;;4.30;3.90;;;31.20;79.90;33.10;96315.00;;;;5048582;28;20220;-70
2022/08/18 09:27:42;;;;;;;4.72;3.50;;;31.20;74.70;33.80;96311.00;;;;5039054;28;20211;-70
2022/08/18 09:31:18;;;;;;;6.40;3.33;;;31.20;75.10;32.90;96315.00;;;;5039241;28;20225;-70
2022/08/18 09:34:50;;;;;;;9.20;4.65;;;31.50;72.20;34.00;96314.00;;;;5048317;28;20207;-70
2022/08/18 09:41:30;;;;;;;6.57;3.38;;;31.60;73.10;34.10;96320.00;;;;5009704;28;20576;-70
2022/08/18 09:44:13;;;;;;;3.53;2.85;;;32.20;70.70;35.20;96287.00;;;;5048792;28;20220;-70
2022/08/18 09:47:03;;;;;;;6.22;3.42;;;32.50;70.90;35.40;96285.00;;;;5049216;28;20215;-70
2022/08/18 09:49:54;;;;;;;6.38;3.22;;;32.70;71.00;35.50;96286.00;;;;5051833;28;20216;-70
2022/08/18 09:52:52;;;;;;;7.95;3.45;;;33.00;70.00;35.80;96292.00;;;;5050343;28;20234;-70
2022/08/18 09:55:57;;;;;;;10.15;3.10;;;33.20;68.80;35.80;96280.00;;;;5050835;28;20207;-70
2022/08/18 09:58:57;;;;;;;5.75;3.20;;;33.40;67.10;36.10;96277.00;;;;5042668;28;20695;-70
2022/08/18 10:01:46;;;;;;;5.97;3.58;;;33.60;67.20;36.20;96270.00;;;;5050426;28;20274;-70
2022/08/18 10:04:47;;;;;;;8.27;3.38;;;33.70;66.90;36.40;96277.00;;;;5045400;28;20224;-70
2022/08/18 10:07:39;;;;;;;7.75;4.65;;;33.90;66.40;36.10;96273.00;;;;5044745;28;20204;-70
2022/08/18 10:10:38;;;;;;;7.38;3.25;;;34.00;64.30;36.30;96296.00;;;;5047730;28;20228;-70
2022/08/18 10:13:36;;;;;;;9.65;3.75;;;34.10;63.30;35.80;96289.00;;;;5051025;28;20223;-70
2022/08/18 10:16:36;;;;;;;8.13;3.55;;;34.20;62.90;35.80;96284.00;;;;5044548;28;20200;-70
2022/08/18 10:19:44;;;;;;;8.70;3.15;;;34.10;60.70;35.70;96278.00;;;;5051455;28;20227;-70
2022/08/18 10:22:40;;;;;;;11.10;4.28;;;34.30;59.60;36.60;96269.00;;;;5049836;28;20210;-70
2022/08/18 10:25:39;;;;;;;10.43;3.70;;;34.30;60.60;37.20;96280.00;;;;5051614;28;20691;-70
2022/08/18 10:28:57;;;;;;;15.40;3.35;;;34.50;61.10;37.10;96270.00;;;;5050792;28;20201;-70
2022/08/18 10:32:42;;;;;;;7.22;3.97;;;34.70;60.40;37.60;96267.00;;;;5048476;28;20224;-70
2022/08/18 10:35:58;;;;;;;6.95;3.47;;;35.00;59.80;37.70;96270.00;;;;5051570;28;20200;-70
2022/08/18 10:38:52;;;;;;;12.40;5.47;;;35.20;59.70;38.00;96264.00;;;;5047757;28;20212;-70
2022/08/18 10:42:04;;;;;;;7.65;3.63;;;35.40;59.50;37.60;96267.00;;;;5050319;28;20224;-70
2022/08/18 10:45:01;;;;;;;7.25;3.67;;;35.50;58.70;37.60;96252.00;;;;5049747;28;20227;-70
2022/08/18 10:48:05;;;;;;;6.57;3.63;;;35.40;57.60;37.70;96252.00;;;;5046163;28;20196;-70
2022/08/18 10:51:04;;;;;;;8.75;3.10;;;35.50;58.20;38.20;96260.00;;;;5050883;28;20228;-70
2022/08/18 10:54:02;;;;;;;8.60;3.85;;;35.60;58.30;38.40;96276.00;;;;5042367;28;20389;-70
2022/08/18 10:56:55;;;;;;;8.95;4.13;;;35.80;58.00;38.20;96283.00;;;;5046108;28;20205;-70
2022/08/18 10:59:54;;;;;;;6.70;3.33;;;35.90;57.50;38.60;96269.00;;;;5044541;28;20205;-70
2022/08/18 11:03:08;;;;;;;9.45;3.70;;;36.00;57.80;38.80;96264.00;;;;5043668;28;20699;-70
2022/08/18 11:06:24;;;;;;;4.78;3.33;;;36.30;57.00;39.00;96276.00;;;;5042465;28;20702;-70
2022/08/18 11:09:23;;;;;;;7.22;3.38;;;36.40;56.30;39.30;96284.00;;;;5033017;28;20554;-70
2022/08/18 11:12:14;;;;;;;8.13;3.05;;;36.60;56.10;39.50;96288.00;;;;5048516;28;20642;-70
2022/08/18 11:15:16;;;;;;;7.35;3.97;;;36.80;55.70;39.60;96294.00;;;;5052366;28;20203;-70
2022/08/18 11:18:23;;;;;;;11.57;3.78;;;37.00;55.30;39.30;96297.00;;;;5050192;28;20212;-70
2022/08/18 11:21:33;;;;;;;6.35;3.20;;;37.20;54.20;37.60;96285.00;;;;5050142;28;20236;-70
2022/08/18 11:24:25;;;;;;;11.32;3.92;;;37.00;52.80;35.70;96280.00;;;;5049976;28;20228;-70
2022/08/18 11:27:20;;;;;;;6.72;3.42;;;35.90;51.40;35.10;96274.00;;;;5050910;28;20200;-67
2022/08/18 11:30:11;;;;;;;4.25;2.70;;;35.20;52.60;35.80;96291.00;;;;5048439;28;20232;-69
2022/08/18 11:33:00;;;;;;;6.15;3.03;;;34.70;53.00;36.80;96285.00;;;;5049719;28;20841;-69
2022/08/18 11:35:56;;;;;;;5.57;3.38;;;34.90;54.60;37.50;96266.00;;;;5047125;28;20686;-69
2022/08/18 11:38:56;;;;;;;6.10;3.83;;;35.20;55.20;38.00;96274.00;;;;5036451;28;20858;-70
2022/08/18 11:41:48;;;;;;;9.93;3.40;;;35.60;53.80;38.70;96277.00;;;;5043904;28;20228;-69
2022/08/18 11:44:39;;;;;;;6.25;3.25;;;35.90;54.00;39.20;96278.00;;;;5044819;28;20235;-69
2022/08/18 11:47:28;;;;;;;5.60;3.38;;;36.20;53.80;39.60;96285.00;;;;5047426;28;20204;-69
2022/08/18 11:50:28;;;;;;;8.20;3.55;;;36.70;53.70;40.50;96286.00;;;;5050146;28;20228;-69
2022/08/18 11:53:25;;;;;;;9.50;3.35;;;37.10;54.00;41.00;96272.00;;;;5044577;28;20578;-70
2022/08/18 11:56:26;;;;;;;6.97;3.67;;;37.60;53.90;41.40;96269.00;;;;5048628;28;20216;-70
2022/08/18 11:59:32;;;;;;;3.58;3.03;;;38.20;54.20;41.40;96260.00;;;;5048382;28;20220;-70
2022/08/18 12:02:24;;;;;;;10.50;2.88;;;38.50;51.90;42.00;96258.00;;;;5048499;28;20227;-70
2022/08/18 12:05:13;;;;;;;7.57;3.72;;;38.90;52.20;42.10;96253.00;;;;5049571;28;20276;-70
2022/08/18 12:08:02;;;;;;;8.57;3.17;;;39.20;51.40;40.40;96247.00;;;;5049642;28;20204;-70
2022/08/18 12:11:05;;;;;;;8.27;3.47;;;39.10;48.70;41.20;96248.00;;;;5049041;28;20703;-70
2022/08/18 12:14:20;;;;;;;7.40;3.70;;;39.10;49.50;41.80;96259.00;;;;5049443;28;20813;-70
2022/08/18 12:17:11;;;;;;;10.15;3.85;;;39.20;50.00;41.10;96243.00;;;;5051720;28;20583;-69
2022/08/18 12:20:01;;;;;;;10.82;3.47;;;39.20;49.50;41.70;96248.00;;;;5053167;28;20292;-69
2022/08/18 12:22:53;;;;;;;6.75;2.92;;;39.20;49.00;41.80;96246.00;;;;5042836;28;20211;-69
2022/08/18 12:25:42;;;;;;;9.40;4.00;;;39.20;48.50;42.20;96241.00;;;;5044347;28;20200;-69
2022/08/18 12:28:31;;;;;;;8.23;2.58;;;39.40;49.20;40.20;96238.00;;;;5049128;28;20212;-70
2022/08/18 12:31:23;;;;;;;5.82;3.08;;;39.40;47.70;38.30;96249.00;;;;5049273;28;20232;-70
2022/08/18 12:34:13;;;;;;;7.78;3.13;;;38.40;47.20;38.60;96251.00;;;;5048790;28;20212;-69
2022/08/18 12:37:02;;;;;;;11.30;4.45;;;38.00;47.90;40.00;96258.00;;;;5045357;28;20204;-69
2022/08/18 12:39:55;;;;;;;5.97;2.40;;;37.80;48.20;39.20;96272.00;;;;5034321;28;20667;-69
2022/08/18 12:42:47;;;;;;;7.05;2.67;;;37.80;48.00;40.40;96248.00;;;;5047861;28;20208;-69
2022/08/18 12:45:41;;;;;;;5.07;2.90;;;37.80;48.70;40.90;96248.00;;;;5047878;28;20215;-69
2022/08/18 12:48:32;;;;;;;6.68;3.28;;;38.00;49.00;40.00;96256.00;;;;5042779;28;20200;-68
2022/08/18 12:51:23;;;;;;;9.32;3.97;;;38.20;48.10;40.00;96262.00;;;;5045406;28;20231;-69
2022/08/18 12:54:13;;;;;;;7.28;3.30;;;38.30;48.30;41.00;96257.00;;;;5042259;28;20204;-68
2022/08/18 12:57:04;;;;;;;5.20;2.97;;;38.40;48.90;40.70;96286.00;;;;5044352;28;20207;-69
2022/08/18 12:59:54;;;;;;;11.15;2.80;;;38.40;48.70;40.10;96296.00;;;;5045008;28;20200;-69
2022/08/18 13:02:28;;;;;;;6.35;3.05;;;38.40;48.60;40.30;96297.00;;;;5111912;22;20418;-85
2022/08/18 13:05:18;;;;;;;11.57;3.30;;;38.30;48.70;39.60;96297.00;;;;5094772;28;20969;-85
2022/08/18 13:08:18;;;;;;;8.20;3.25;;;38.10;48.10;40.00;96288.00;;;;5093261;28;20203;-85